Terminal Aerodrome Forecast
Issued by NWS Binghamton, NY

Home | Current Version | Previous Version | Text Only | Print | Product List | Glossary On
Versions: 1 2 3 4 5 6 7 8 9 10 11 12 13 14 15 16 17
000
FTUS41 KBGM 241857 AAB
TAFBGM
TAF AMD
KBGM 241857Z 2419/2518 20006KT P6SM FEW100
     FM250800 19007KT P6SM BKN200 PROB30 2514/2517 -SHRA OVC040
     FM251700 21011KT P6SM BKN060 PROB30 2517/2518 -SHRA OVC040=

USA.gov is the U.S. government's official web portal to all federal, state and local government web resources and services.